sensor_id;sensor_type;location;lat;lon;timestamp;temperature;humidity
61979;DHT22;47938;48.176;16.414;2022-10-16T00:01:24;12.30;99.90
61979;DHT22;47938;48.176;16.414;2022-10-16T00:03:51;12.30;99.90
61979;DHT22;47938;48.176;16.414;2022-10-16T00:06:19;12.30;99.90
61979;DHT22;47938;48.176;16.414;2022-10-16T00:08:45;12.20;99.90
61979;DHT22;47938;48.176;16.414;2022-10-16T00:11:13;12.20;99.90
61979;DHT22;47938;48.176;16.414;2022-10-16T00:13:40;12.20;99.90
61979;DHT22;47938;48.176;16.414;2022-10-16T00:16:07;12.20;99.90
61979;DHT22;47938;48.176;16.414;2022-10-16T00:18:33;12.20;99.90
61979;DHT22;47938;48.176;16.414;2022-10-16T00:21:08;12.20;99.90
61979;DHT22;47938;48.176;16.414;2022-10-16T00:23:34;12.20;99.90
61979;DHT22;47938;48.176;16.414;2022-10-16T00:26:03;12.20;99.90
61979;DHT22;47938;48.176;16.414;2022-10-16T00:28:29;12.10;99.90
61979;DHT22;47938;48.176;16.414;2022-10-16T00:30:55;12.10;99.90
61979;DHT22;47938;48.176;16.414;2022-10-16T00:33:21;12.10;99.90
61979;DHT22;47938;48.176;16.414;2022-10-16T00:35:47;12.10;99.90
61979;DHT22;47938;48.176;16.414;2022-10-16T00:38:12;12.10;99.90
61979;DHT22;47938;48.176;16.414;2022-10-16T00:40:39;12.10;99.90
61979;DHT22;47938;48.176;16.414;2022-10-16T00:45:59;12.00;99.90
61979;DHT22;47938;48.176;16.414;2022-10-16T00:48:25;12.00;99.90
61979;DHT22;47938;48.176;16.414;2022-10-16T00:50:50;12.00;99.90
61979;DHT22;47938;48.176;16.414;2022-10-16T00:53:17;12.00;99.90
61979;DHT22;47938;48.176;16.414;2022-10-16T00:55:43;12.00;99.90
61979;DHT22;47938;48.176;16.414;2022-10-16T00:58:09;12.10;99.90
61979;DHT22;47938;48.176;16.414;2022-10-16T01:00:35;12.10;99.90
61979;DHT22;47938;48.176;16.414;2022-10-16T01:03:01;12.10;99.90
61979;DHT22;47938;48.176;16.414;2022-10-16T01:05:34;12.10;99.90
61979;DHT22;47938;48.176;16.414;2022-10-16T01:08:07;12.20;99.90
61979;DHT22;47938;48.176;16.414;2022-10-16T01:10:54;12.10;99.90
61979;DHT22;47938;48.176;16.414;2022-10-16T01:13:27;12.10;99.90
61979;DHT22;47938;48.176;16.414;2022-10-16T01:16:00;12.10;99.90
61979;DHT22;47938;48.176;16.414;2022-10-16T01:21:06;12.10;99.90
61979;DHT22;47938;48.176;16.414;2022-10-16T01:29:28;12.10;99.90
61979;DHT22;47938;48.176;16.414;2022-10-16T01:32:08;12.00;99.90
61979;DHT22;47938;48.176;16.414;2022-10-16T01:34:41;12.00;99.90
61979;DHT22;47938;48.176;16.414;2022-10-16T01:37:15;11.90;99.90
61979;DHT22;47938;48.176;16.414;2022-10-16T01:39:44;11.90;99.90
61979;DHT22;47938;48.176;16.414;2022-10-16T01:42:16;11.90;99.90
61979;DHT22;47938;48.176;16.414;2022-10-16T01:44:47;11.90;99.90
61979;DHT22;47938;48.176;16.414;2022-10-16T01:47:14;11.90;99.90
61979;DHT22;47938;48.176;16.414;2022-10-16T01:49:41;11.90;99.90
61979;DHT22;47938;48.176;16.414;2022-10-16T01:52:15;11.90;99.90
61979;DHT22;47938;48.176;16.414;2022-10-16T01:54:44;11.90;99.90
61979;DHT22;47938;48.176;16.414;2022-10-16T01:57:12;11.90;99.90
61979;DHT22;47938;48.176;16.414;2022-10-16T01:59:44;11.90;99.90
61979;DHT22;47938;48.176;16.414;2022-10-16T02:02:11;11.90;99.90
61979;DHT22;47938;48.176;16.414;2022-10-16T02:04:42;11.90;99.90
61979;DHT22;47938;48.176;16.414;2022-10-16T02:07:08;11.90;99.90
61979;DHT22;47938;48.176;16.414;2022-10-16T02:09:34;11.90;99.90
61979;DHT22;47938;48.176;16.414;2022-10-16T02:12:06;11.90;99.90
61979;DHT22;47938;48.176;16.414;2022-10-16T02:14:34;11.90;99.90
61979;DHT22;47938;48.176;16.414;2022-10-16T02:17:10;11.90;99.90
61979;DHT22;47938;48.176;16.414;2022-10-16T02:19:36;11.90;99.90
61979;DHT22;47938;48.176;16.414;2022-10-16T02:22:04;11.90;99.90
61979;DHT22;47938;48.176;16.414;2022-10-16T02:24:50;11.90;99.90
61979;DHT22;47938;48.176;16.414;2022-10-16T02:27:27;11.90;99.90
61979;DHT22;47938;48.176;16.414;2022-10-16T02:30:13;11.90;99.90
61979;DHT22;47938;48.176;16.414;2022-10-16T02:32:42;12.00;99.90
61979;DHT22;47938;48.176;16.414;2022-10-16T02:35:09;12.00;99.90
61979;DHT22;47938;48.176;16.414;2022-10-16T02:37:36;12.00;99.90
61979;DHT22;47938;48.176;16.414;2022-10-16T02:40:03;12.00;99.90
61979;DHT22;47938;48.176;16.414;2022-10-16T02:42:34;12.10;99.90
61979;DHT22;47938;48.176;16.414;2022-10-16T02:45:00;12.10;99.90
61979;DHT22;47938;48.176;16.414;2022-10-16T02:47:25;12.10;99.90
61979;DHT22;47938;48.176;16.414;2022-10-16T02:49:51;12.10;99.90
61979;DHT22;47938;48.176;16.414;2022-10-16T02:52:17;12.10;99.90
61979;DHT22;47938;48.176;16.414;2022-10-16T02:54:42;12.10;99.90
61979;DHT22;47938;48.176;16.414;2022-10-16T02:57:08;12.10;99.90
61979;DHT22;47938;48.176;16.414;2022-10-16T02:59:34;12.10;99.90
61979;DHT22;47938;48.176;16.414;2022-10-16T03:01:59;12.00;99.90
61979;DHT22;47938;48.176;16.414;2022-10-16T03:04:25;12.00;99.90
61979;DHT22;47938;48.176;16.414;2022-10-16T03:06:50;11.90;99.90
61979;DHT22;47938;48.176;16.414;2022-10-16T03:09:16;11.90;99.90
61979;DHT22;47938;48.176;16.414;2022-10-16T03:11:42;11.90;99.90
61979;DHT22;47938;48.176;16.414;2022-10-16T03:14:07;11.90;99.90
61979;DHT22;47938;48.176;16.414;2022-10-16T03:16:33;11.90;99.90
61979;DHT22;47938;48.176;16.414;2022-10-16T03:18:58;11.90;99.90
61979;DHT22;47938;48.176;16.414;2022-10-16T03:21:24;11.90;99.90
61979;DHT22;47938;48.176;16.414;2022-10-16T03:23:50;11.90;99.90
61979;DHT22;47938;48.176;16.414;2022-10-16T03:26:15;11.90;99.90
61979;DHT22;47938;48.176;16.414;2022-10-16T03:28:41;11.90;99.90
61979;DHT22;47938;48.176;16.414;2022-10-16T03:31:06;11.90;99.90
61979;DHT22;47938;48.176;16.414;2022-10-16T03:33:32;11.90;99.90
61979;DHT22;47938;48.176;16.414;2022-10-16T03:35:58;11.80;99.90
61979;DHT22;47938;48.176;16.414;2022-10-16T03:38:23;11.80;99.90
61979;DHT22;47938;48.176;16.414;2022-10-16T03:40:49;11.80;99.90
61979;DHT22;47938;48.176;16.414;2022-10-16T03:43:15;11.70;99.90
61979;DHT22;47938;48.176;16.414;2022-10-16T03:45:40;11.70;99.90
61979;DHT22;47938;48.176;16.414;2022-10-16T03:48:06;11.70;99.90
61979;DHT22;47938;48.176;16.414;2022-10-16T03:50:32;11.60;99.90
61979;DHT22;47938;48.176;16.414;2022-10-16T03:52:57;11.60;99.90
61979;DHT22;47938;48.176;16.414;2022-10-16T03:55:23;11.60;99.90
61979;DHT22;47938;48.176;16.414;2022-10-16T03:57:48;11.60;99.90
61979;DHT22;47938;48.176;16.414;2022-10-16T04:00:14;11.50;99.90
61979;DHT22;47938;48.176;16.414;2022-10-16T04:02:40;11.50;99.90
61979;DHT22;47938;48.176;16.414;2022-10-16T04:05:06;11.50;99.90
61979;DHT22;47938;48.176;16.414;2022-10-16T04:07:32;11.50;99.90
61979;DHT22;47938;48.176;16.414;2022-10-16T04:09:57;11.50;99.90
61979;DHT22;47938;48.176;16.414;2022-10-16T04:12:23;11.40;99.90
61979;DHT22;47938;48.176;16.414;2022-10-16T04:14:48;11.40;99.90
61979;DHT22;47938;48.176;16.414;2022-10-16T04:17:14;11.40;99.90
61979;DHT22;47938;48.176;16.414;2022-10-16T04:19:39;11.30;99.90
61979;DHT22;47938;48.176;16.414;2022-10-16T04:22:05;11.30;99.90
61979;DHT22;47938;48.176;16.414;2022-10-16T04:24:31;11.30;99.90
61979;DHT22;47938;48.176;16.414;2022-10-16T04:26:56;11.20;99.90
61979;DHT22;47938;48.176;16.414;2022-10-16T04:29:22;11.20;99.90
61979;DHT22;47938;48.176;16.414;2022-10-16T04:31:47;11.10;99.90
61979;DHT22;47938;48.176;16.414;2022-10-16T04:34:13;11.10;99.90
61979;DHT22;47938;48.176;16.414;2022-10-16T04:36:39;11.10;99.90
61979;DHT22;47938;48.176;16.414;2022-10-16T04:39:04;11.10;99.90
61979;DHT22;47938;48.176;16.414;2022-10-16T04:41:30;11.10;99.90
61979;DHT22;47938;48.176;16.414;2022-10-16T04:43:55;11.10;99.90
61979;DHT22;47938;48.176;16.414;2022-10-16T04:46:21;11.00;99.90
61979;DHT22;47938;48.176;16.414;2022-10-16T04:48:46;11.00;99.90
61979;DHT22;47938;48.176;16.414;2022-10-16T04:51:12;11.00;99.90
61979;DHT22;47938;48.176;16.414;2022-10-16T04:53:38;11.00;99.90
61979;DHT22;47938;48.176;16.414;2022-10-16T04:56:04;11.00;99.90
61979;DHT22;47938;48.176;16.414;2022-10-16T04:58:29;11.00;99.90
61979;DHT22;47938;48.176;16.414;2022-10-16T05:00:55;11.00;99.90
61979;DHT22;47938;48.176;16.414;2022-10-16T05:03:20;11.00;99.90
61979;DHT22;47938;48.176;16.414;2022-10-16T05:05:46;11.00;99.90
61979;DHT22;47938;48.176;16.414;2022-10-16T05:08:13;11.00;99.90
61979;DHT22;47938;48.176;16.414;2022-10-16T05:10:41;11.00;99.90
61979;DHT22;47938;48.176;16.414;2022-10-16T05:13:07;11.00;99.90
61979;DHT22;47938;48.176;16.414;2022-10-16T05:15:33;11.00;99.90
61979;DHT22;47938;48.176;16.414;2022-10-16T05:17:58;11.00;99.90
61979;DHT22;47938;48.176;16.414;2022-10-16T05:20:24;11.00;99.90
61979;DHT22;47938;48.176;16.414;2022-10-16T05:22:50;11.10;99.90
61979;DHT22;47938;48.176;16.414;2022-10-16T05:25:15;11.10;99.90
61979;DHT22;47938;48.176;16.414;2022-10-16T05:27:41;11.10;99.90
61979;DHT22;47938;48.176;16.414;2022-10-16T05:30:07;11.10;99.90
61979;DHT22;47938;48.176;16.414;2022-10-16T05:32:33;11.10;99.90
61979;DHT22;47938;48.176;16.414;2022-10-16T05:34:58;11.10;99.90
61979;DHT22;47938;48.176;16.414;2022-10-16T05:37:24;11.20;99.90
61979;DHT22;47938;48.176;16.414;2022-10-16T05:39:50;11.20;99.90
61979;DHT22;47938;48.176;16.414;2022-10-16T05:42:15;11.20;99.90
61979;DHT22;47938;48.176;16.414;2022-10-16T05:44:41;11.20;99.90
61979;DHT22;47938;48.176;16.414;2022-10-16T05:47:06;11.30;99.90
61979;DHT22;47938;48.176;16.414;2022-10-16T05:49:32;11.30;99.90
61979;DHT22;47938;48.176;16.414;2022-10-16T05:51:57;11.30;99.90
61979;DHT22;47938;48.176;16.414;2022-10-16T05:54:23;11.30;99.90
61979;DHT22;47938;48.176;16.414;2022-10-16T05:56:49;11.30;99.90
61979;DHT22;47938;48.176;16.414;2022-10-16T05:59:14;11.40;99.90
61979;DHT22;47938;48.176;16.414;2022-10-16T06:01:40;11.30;99.90
61979;DHT22;47938;48.176;16.414;2022-10-16T06:04:05;11.30;99.90
61979;DHT22;47938;48.176;16.414;2022-10-16T06:06:31;11.40;99.90
61979;DHT22;47938;48.176;16.414;2022-10-16T06:08:57;11.40;99.90
61979;DHT22;47938;48.176;16.414;2022-10-16T06:11:27;11.50;99.90
61979;DHT22;47938;48.176;16.414;2022-10-16T06:13:56;11.50;99.90
61979;DHT22;47938;48.176;16.414;2022-10-16T06:16:23;11.50;99.90
61979;DHT22;47938;48.176;16.414;2022-10-16T06:18:51;11.60;99.90
61979;DHT22;47938;48.176;16.414;2022-10-16T06:21:19;11.60;99.90
61979;DHT22;47938;48.176;16.414;2022-10-16T06:23:45;11.60;99.90
61979;DHT22;47938;48.176;16.414;2022-10-16T06:26:13;11.60;99.90
61979;DHT22;47938;48.176;16.414;2022-10-16T06:28:40;11.70;99.90
61979;DHT22;47938;48.176;16.414;2022-10-16T06:31:07;11.70;99.90
61979;DHT22;47938;48.176;16.414;2022-10-16T06:33:33;11.80;99.90
61979;DHT22;47938;48.176;16.414;2022-10-16T06:36:08;11.80;99.90
61979;DHT22;47938;48.176;16.414;2022-10-16T06:38:35;11.90;99.90
61979;DHT22;47938;48.176;16.414;2022-10-16T06:41:01;11.90;99.90
61979;DHT22;47938;48.176;16.414;2022-10-16T06:43:28;11.90;99.90
61979;DHT22;47938;48.176;16.414;2022-10-16T06:45:55;11.90;99.90
61979;DHT22;47938;48.176;16.414;2022-10-16T06:48:23;12.00;99.90
61979;DHT22;47938;48.176;16.414;2022-10-16T06:51:11;12.00;99.90
61979;DHT22;47938;48.176;16.414;2022-10-16T06:53:39;12.10;99.90
61979;DHT22;47938;48.176;16.414;2022-10-16T06:56:25;12.10;99.90
61979;DHT22;47938;48.176;16.414;2022-10-16T06:58:51;12.10;99.90
61979;DHT22;47938;48.176;16.414;2022-10-16T07:01:19;12.10;99.90
61979;DHT22;47938;48.176;16.414;2022-10-16T07:03:46;12.10;99.90
61979;DHT22;47938;48.176;16.414;2022-10-16T07:06:14;12.20;99.90
61979;DHT22;47938;48.176;16.414;2022-10-16T07:08:43;12.20;99.90
61979;DHT22;47938;48.176;16.414;2022-10-16T07:11:11;12.30;99.90
61979;DHT22;47938;48.176;16.414;2022-10-16T07:13:39;12.20;99.90
61979;DHT22;47938;48.176;16.414;2022-10-16T07:16:10;12.20;99.90
61979;DHT22;47938;48.176;16.414;2022-10-16T07:18:36;12.30;99.90
61979;DHT22;47938;48.176;16.414;2022-10-16T07:21:32;12.30;99.90
61979;DHT22;47938;48.176;16.414;2022-10-16T07:23:59;12.40;99.90
61979;DHT22;47938;48.176;16.414;2022-10-16T07:26:26;12.40;99.90
61979;DHT22;47938;48.176;16.414;2022-10-16T07:28:52;12.40;99.90
61979;DHT22;47938;48.176;16.414;2022-10-16T07:31:21;12.50;99.90
61979;DHT22;47938;48.176;16.414;2022-10-16T07:33:47;12.50;99.90
61979;DHT22;47938;48.176;16.414;2022-10-16T07:36:13;12.60;99.90
61979;DHT22;47938;48.176;16.414;2022-10-16T07:38:38;12.70;99.90
61979;DHT22;47938;48.176;16.414;2022-10-16T07:41:06;12.70;99.90
61979;DHT22;47938;48.176;16.414;2022-10-16T07:43:32;12.80;99.90
61979;DHT22;47938;48.176;16.414;2022-10-16T07:45:58;12.90;99.90
61979;DHT22;47938;48.176;16.414;2022-10-16T07:48:27;13.00;99.90
61979;DHT22;47938;48.176;16.414;2022-10-16T07:51:03;13.00;99.90
61979;DHT22;47938;48.176;16.414;2022-10-16T07:53:30;13.10;99.90
61979;DHT22;47938;48.176;16.414;2022-10-16T07:56:00;13.10;99.90
61979;DHT22;47938;48.176;16.414;2022-10-16T07:58:27;13.00;99.90
61979;DHT22;47938;48.176;16.414;2022-10-16T08:00:54;13.00;99.90
61979;DHT22;47938;48.176;16.414;2022-10-16T08:03:20;13.00;99.90
61979;DHT22;47938;48.176;16.414;2022-10-16T08:05:45;13.00;99.90
61979;DHT22;47938;48.176;16.414;2022-10-16T08:08:13;13.00;99.90
61979;DHT22;47938;48.176;16.414;2022-10-16T08:10:40;13.00;99.90
61979;DHT22;47938;48.176;16.414;2022-10-16T08:13:05;13.10;99.90
61979;DHT22;47938;48.176;16.414;2022-10-16T08:15:31;13.10;99.90
61979;DHT22;47938;48.176;16.414;2022-10-16T08:17:58;13.10;99.90
61979;DHT22;47938;48.176;16.414;2022-10-16T08:20:24;13.20;99.90
61979;DHT22;47938;48.176;16.414;2022-10-16T08:22:50;13.20;99.90
61979;DHT22;47938;48.176;16.414;2022-10-16T08:25:16;13.30;99.90
61979;DHT22;47938;48.176;16.414;2022-10-16T08:27:41;13.30;99.90
61979;DHT22;47938;48.176;16.414;2022-10-16T08:30:08;13.40;99.90
61979;DHT22;47938;48.176;16.414;2022-10-16T08:32:33;13.40;99.90
61979;DHT22;47938;48.176;16.414;2022-10-16T08:34:59;13.50;99.90
61979;DHT22;47938;48.176;16.414;2022-10-16T08:37:25;13.50;99.90
61979;DHT22;47938;48.176;16.414;2022-10-16T08:39:54;13.50;99.90
61979;DHT22;47938;48.176;16.414;2022-10-16T08:42:31;13.60;99.90
61979;DHT22;47938;48.176;16.414;2022-10-16T08:47:52;13.70;99.90
61979;DHT22;47938;48.176;16.414;2022-10-16T08:50:25;13.70;99.90
61979;DHT22;47938;48.176;16.414;2022-10-16T08:52:51;13.80;99.90
61979;DHT22;47938;48.176;16.414;2022-10-16T08:55:51;13.80;99.90
61979;DHT22;47938;48.176;16.414;2022-10-16T08:58:28;13.80;99.90
61979;DHT22;47938;48.176;16.414;2022-10-16T09:00:59;13.80;99.90
61979;DHT22;47938;48.176;16.414;2022-10-16T09:17:07;13.80;99.90
61979;DHT22;47938;48.176;16.414;2022-10-16T09:19:46;13.90;99.90
61979;DHT22;47938;48.176;16.414;2022-10-16T09:22:16;14.00;99.90
61979;DHT22;47938;48.176;16.414;2022-10-16T09:24:42;14.00;99.90
61979;DHT22;47938;48.176;16.414;2022-10-16T09:27:12;14.10;99.90
61979;DHT22;47938;48.176;16.414;2022-10-16T09:29:39;14.20;99.90
61979;DHT22;47938;48.176;16.414;2022-10-16T09:32:23;14.20;99.90
61979;DHT22;47938;48.176;16.414;2022-10-16T09:34:54;14.20;99.90
61979;DHT22;47938;48.176;16.414;2022-10-16T09:37:22;14.30;99.90
61979;DHT22;47938;48.176;16.414;2022-10-16T09:39:51;14.40;99.90
61979;DHT22;47938;48.176;16.414;2022-10-16T09:42:19;14.70;99.90
61979;DHT22;47938;48.176;16.414;2022-10-16T09:44:49;14.90;99.90
61979;DHT22;47938;48.176;16.414;2022-10-16T09:47:22;15.00;99.90
61979;DHT22;47938;48.176;16.414;2022-10-16T09:50:38;15.10;99.90
61979;DHT22;47938;48.176;16.414;2022-10-16T09:52:38;15.30;99.90
61979;DHT22;47938;48.176;16.414;2022-10-16T09:55:18;15.50;99.90
61979;DHT22;47938;48.176;16.414;2022-10-16T09:57:53;15.60;99.90
61979;DHT22;47938;48.176;16.414;2022-10-16T10:00:21;15.70;99.90
61979;DHT22;47938;48.176;16.414;2022-10-16T10:02:47;15.70;99.90
61979;DHT22;47938;48.176;16.414;2022-10-16T10:05:27;15.80;99.90
61979;DHT22;47938;48.176;16.414;2022-10-16T10:07:58;15.80;99.90
61979;DHT22;47938;48.176;16.414;2022-10-16T10:10:27;15.90;99.90
61979;DHT22;47938;48.176;16.414;2022-10-16T10:12:54;16.00;99.90
61979;DHT22;47938;48.176;16.414;2022-10-16T10:15:20;16.10;99.90
61979;DHT22;47938;48.176;16.414;2022-10-16T10:17:57;16.10;99.90
61979;DHT22;47938;48.176;16.414;2022-10-16T10:20:31;16.10;99.90
61979;DHT22;47938;48.176;16.414;2022-10-16T10:22:57;16.10;99.90
61979;DHT22;47938;48.176;16.414;2022-10-16T10:28:17;16.30;99.90
61979;DHT22;47938;48.176;16.414;2022-10-16T10:50:14;16.90;98.60
61979;DHT22;47938;48.176;16.414;2022-10-16T11:01:12;17.30;94.30
61979;DHT22;47938;48.176;16.414;2022-10-16T11:06:22;17.60;94.80
61979;DHT22;47938;48.176;16.414;2022-10-16T11:08:53;17.80;93.10
61979;DHT22;47938;48.176;16.414;2022-10-16T11:11:31;17.90;93.20
61979;DHT22;47938;48.176;16.414;2022-10-16T11:14:25;17.90;93.00
61979;DHT22;47938;48.176;16.414;2022-10-16T11:17:00;18.00;93.50
61979;DHT22;47938;48.176;16.414;2022-10-16T11:19:41;18.10;92.50
61979;DHT22;47938;48.176;16.414;2022-10-16T11:22:34;18.10;91.90
61979;DHT22;47938;48.176;16.414;2022-10-16T11:27:44;18.10;92.20
61979;DHT22;47938;48.176;16.414;2022-10-16T11:30:19;18.20;91.40
61979;DHT22;47938;48.176;16.414;2022-10-16T11:33:08;18.10;92.10
61979;DHT22;47938;48.176;16.414;2022-10-16T11:35:48;18.00;92.30
61979;DHT22;47938;48.176;16.414;2022-10-16T11:41:48;17.80;94.80
61979;DHT22;47938;48.176;16.414;2022-10-16T11:46:59;18.00;95.10
61979;DHT22;47938;48.176;16.414;2022-10-16T11:49:31;18.20;94.20
61979;DHT22;47938;48.176;16.414;2022-10-16T11:57:15;18.30;92.80
61979;DHT22;47938;48.176;16.414;2022-10-16T11:59:44;18.20;93.20
61979;DHT22;47938;48.176;16.414;2022-10-16T12:02:31;18.30;93.80
61979;DHT22;47938;48.176;16.414;2022-10-16T12:07:46;18.30;94.40
61979;DHT22;47938;48.176;16.414;2022-10-16T12:10:29;18.40;93.20
61979;DHT22;47938;48.176;16.414;2022-10-16T12:12:55;18.30;93.50
61979;DHT22;47938;48.176;16.414;2022-10-16T12:15:29;18.30;94.10
61979;DHT22;47938;48.176;16.414;2022-10-16T12:17:55;18.40;94.00
61979;DHT22;47938;48.176;16.414;2022-10-16T12:20:30;18.60;93.60
61979;DHT22;47938;48.176;16.414;2022-10-16T12:23:04;18.70;92.90
61979;DHT22;47938;48.176;16.414;2022-10-16T12:28:05;18.70;92.00
61979;DHT22;47938;48.176;16.414;2022-10-16T12:30:33;18.70;93.40
61979;DHT22;47938;48.176;16.414;2022-10-16T12:33:21;18.70;92.80
61979;DHT22;47938;48.176;16.414;2022-10-16T12:35:47;18.80;92.00
61979;DHT22;47938;48.176;16.414;2022-10-16T12:40:43;18.80;92.90
61979;DHT22;47938;48.176;16.414;2022-10-16T12:43:25;18.90;92.60
61979;DHT22;47938;48.176;16.414;2022-10-16T12:46:21;19.00;91.70
61979;DHT22;47938;48.176;16.414;2022-10-16T12:48:48;19.20;90.50
61979;DHT22;47938;48.176;16.414;2022-10-16T12:54:22;19.50;90.80
61979;DHT22;47938;48.176;16.414;2022-10-16T12:57:03;19.50;89.50
61979;DHT22;47938;48.176;16.414;2022-10-16T13:16:52;19.80;78.60
61979;DHT22;47938;48.176;16.414;2022-10-16T13:19:29;19.80;79.10
61979;DHT22;47938;48.176;16.414;2022-10-16T13:27:56;20.00;77.90
61979;DHT22;47938;48.176;16.414;2022-10-16T13:30:25;20.00;78.80
61979;DHT22;47938;48.176;16.414;2022-10-16T13:33:01;20.00;77.30
61979;DHT22;47938;48.176;16.414;2022-10-16T13:35:33;20.00;76.80
61979;DHT22;47938;48.176;16.414;2022-10-16T13:38:11;20.00;76.50
61979;DHT22;47938;48.176;16.414;2022-10-16T13:40:37;20.10;76.50
61979;DHT22;47938;48.176;16.414;2022-10-16T13:43:12;20.10;75.50
61979;DHT22;47938;48.176;16.414;2022-10-16T13:45:38;20.10;75.90
61979;DHT22;47938;48.176;16.414;2022-10-16T13:48:05;20.00;75.60
61979;DHT22;47938;48.176;16.414;2022-10-16T13:50:32;20.00;74.60
61979;DHT22;47938;48.176;16.414;2022-10-16T13:53:05;20.00;75.10
61979;DHT22;47938;48.176;16.414;2022-10-16T13:55:31;20.00;74.70
61979;DHT22;47938;48.176;16.414;2022-10-16T13:58:13;20.00;74.80
61979;DHT22;47938;48.176;16.414;2022-10-16T14:00:40;20.00;75.10
61979;DHT22;47938;48.176;16.414;2022-10-16T14:03:16;20.00;74.80
61979;DHT22;47938;48.176;16.414;2022-10-16T14:06:04;20.10;74.40
61979;DHT22;47938;48.176;16.414;2022-10-16T14:08:32;20.10;74.20
61979;DHT22;47938;48.176;16.414;2022-10-16T14:10:59;20.10;74.20
61979;DHT22;47938;48.176;16.414;2022-10-16T14:13:32;20.10;73.70
61979;DHT22;47938;48.176;16.414;2022-10-16T14:16:06;20.10;73.80
61979;DHT22;47938;48.176;16.414;2022-10-16T14:18:33;20.10;73.10
61979;DHT22;47938;48.176;16.414;2022-10-16T14:21:07;20.20;71.80
61979;DHT22;47938;48.176;16.414;2022-10-16T14:23:39;20.20;71.30
61979;DHT22;47938;48.176;16.414;2022-10-16T14:28:34;20.20;71.60
61979;DHT22;47938;48.176;16.414;2022-10-16T14:31:02;20.10;70.40
61979;DHT22;47938;48.176;16.414;2022-10-16T14:36:11;20.10;70.20
61979;DHT22;47938;48.176;16.414;2022-10-16T14:38:42;20.10;70.00
61979;DHT22;47938;48.176;16.414;2022-10-16T14:41:09;20.10;70.40
61979;DHT22;47938;48.176;16.414;2022-10-16T14:43:40;20.10;70.50
61979;DHT22;47938;48.176;16.414;2022-10-16T14:46:15;20.10;70.80
61979;DHT22;47938;48.176;16.414;2022-10-16T14:48:52;20.10;69.80
61979;DHT22;47938;48.176;16.414;2022-10-16T14:51:21;20.20;69.40
61979;DHT22;47938;48.176;16.414;2022-10-16T14:53:47;20.10;69.90
61979;DHT22;47938;48.176;16.414;2022-10-16T14:56:19;20.10;70.00
61979;DHT22;47938;48.176;16.414;2022-10-16T14:58:45;20.20;70.20
61979;DHT22;47938;48.176;16.414;2022-10-16T15:01:11;20.10;70.30
61979;DHT22;47938;48.176;16.414;2022-10-16T15:03:37;20.10;69.50
61979;DHT22;47938;48.176;16.414;2022-10-16T15:06:03;20.10;69.30
61979;DHT22;47938;48.176;16.414;2022-10-16T15:08:34;20.10;69.30
61979;DHT22;47938;48.176;16.414;2022-10-16T15:11:00;20.00;69.20
61979;DHT22;47938;48.176;16.414;2022-10-16T15:13:26;20.00;69.30
61979;DHT22;47938;48.176;16.414;2022-10-16T15:15:52;20.10;69.20
61979;DHT22;47938;48.176;16.414;2022-10-16T15:18:18;20.00;69.80
61979;DHT22;47938;48.176;16.414;2022-10-16T15:20:43;19.90;70.30
61979;DHT22;47938;48.176;16.414;2022-10-16T15:23:21;19.90;70.40
61979;DHT22;47938;48.176;16.414;2022-10-16T15:25:54;19.90;70.70
61979;DHT22;47938;48.176;16.414;2022-10-16T15:28:22;19.80;70.90
61979;DHT22;47938;48.176;16.414;2022-10-16T15:30:55;19.80;71.40
61979;DHT22;47938;48.176;16.414;2022-10-16T15:33:24;19.70;71.70
61979;DHT22;47938;48.176;16.414;2022-10-16T15:35:51;19.70;72.00
61979;DHT22;47938;48.176;16.414;2022-10-16T15:38:18;19.70;71.60
61979;DHT22;47938;48.176;16.414;2022-10-16T15:40:45;19.70;71.60
61979;DHT22;47938;48.176;16.414;2022-10-16T15:43:11;19.60;71.70
61979;DHT22;47938;48.176;16.414;2022-10-16T15:45:37;19.60;71.90
61979;DHT22;47938;48.176;16.414;2022-10-16T15:48:02;19.50;72.50
61979;DHT22;47938;48.176;16.414;2022-10-16T15:50:28;19.40;73.00
61979;DHT22;47938;48.176;16.414;2022-10-16T15:52:54;19.40;73.00
61979;DHT22;47938;48.176;16.414;2022-10-16T15:55:20;19.40;73.30
61979;DHT22;47938;48.176;16.414;2022-10-16T15:57:46;19.30;73.30
61979;DHT22;47938;48.176;16.414;2022-10-16T16:00:17;19.20;73.80
61979;DHT22;47938;48.176;16.414;2022-10-16T16:02:44;19.20;74.20
61979;DHT22;47938;48.176;16.414;2022-10-16T16:05:14;19.10;74.50
61979;DHT22;47938;48.176;16.414;2022-10-16T16:07:40;19.10;74.50
61979;DHT22;47938;48.176;16.414;2022-10-16T16:10:08;19.00;75.40
61979;DHT22;47938;48.176;16.414;2022-10-16T16:12:35;18.90;75.50
61979;DHT22;47938;48.176;16.414;2022-10-16T16:15:01;18.80;76.30
61979;DHT22;47938;48.176;16.414;2022-10-16T16:17:26;18.80;76.80
61979;DHT22;47938;48.176;16.414;2022-10-16T16:19:52;18.80;76.40
61979;DHT22;47938;48.176;16.414;2022-10-16T16:22:18;18.80;76.70
61979;DHT22;47938;48.176;16.414;2022-10-16T16:24:43;18.80;76.90
61979;DHT22;47938;48.176;16.414;2022-10-16T16:27:09;18.70;76.90
61979;DHT22;47938;48.176;16.414;2022-10-16T16:29:35;18.70;76.80
61979;DHT22;47938;48.176;16.414;2022-10-16T16:32:01;18.70;76.90
61979;DHT22;47938;48.176;16.414;2022-10-16T16:34:27;18.70;76.90
61979;DHT22;47938;48.176;16.414;2022-10-16T16:36:54;18.70;77.10
61979;DHT22;47938;48.176;16.414;2022-10-16T16:39:20;18.60;77.40
61979;DHT22;47938;48.176;16.414;2022-10-16T16:41:46;18.60;77.60
61979;DHT22;47938;48.176;16.414;2022-10-16T16:44:12;18.60;79.10
61979;DHT22;47938;48.176;16.414;2022-10-16T16:46:39;18.50;78.80
61979;DHT22;47938;48.176;16.414;2022-10-16T16:49:05;18.50;78.80
61979;DHT22;47938;48.176;16.414;2022-10-16T16:51:31;18.50;79.00
61979;DHT22;47938;48.176;16.414;2022-10-16T16:53:58;18.40;79.30
61979;DHT22;47938;48.176;16.414;2022-10-16T16:56:24;18.40;79.70
61979;DHT22;47938;48.176;16.414;2022-10-16T16:58:51;18.30;80.40
61979;DHT22;47938;48.176;16.414;2022-10-16T17:01:18;18.30;80.90
61979;DHT22;47938;48.176;16.414;2022-10-16T17:03:45;18.30;80.70
61979;DHT22;47938;48.176;16.414;2022-10-16T17:06:12;18.30;81.00
61979;DHT22;47938;48.176;16.414;2022-10-16T17:08:38;18.30;81.40
61979;DHT22;47938;48.176;16.414;2022-10-16T17:11:05;18.20;81.40
61979;DHT22;47938;48.176;16.414;2022-10-16T17:13:34;18.20;82.10
61979;DHT22;47938;48.176;16.414;2022-10-16T17:16:00;18.20;82.50
61979;DHT22;47938;48.176;16.414;2022-10-16T17:18:26;18.10;82.70
61979;DHT22;47938;48.176;16.414;2022-10-16T17:20:52;18.10;83.00